Time;durP1;ratioP1;P1;durP2;ratioP2;P2;SDS_P1;SDS_P2;PMS_P1;PMS_P2;Temp;Humidity;BMP_temperature;BMP_pressure;BME280_temperature;BME280_humidity;BME280_pressure;Samples;Min_cycle;Max_cycle;Signal;HPM_P1;HPM_P2
2021/08/06 00:00:47;;;;;;;;;;;;;;;;;;2099649;28;1942;-81
2021/08/06 00:01:49;;;;;;;;;;;;;;;;;;2100458;28;1289;-81
2021/08/06 00:02:49;;;;;;;;;;;;;;;;;;2100025;28;2026;-81
2021/08/06 00:03:51;;;;;;;;;;;;;;;;;;2099906;28;1662;-81
2021/08/06 00:04:52;;;;;;;;;;;;;;;;;;2100102;28;1544;-82
2021/08/06 00:05:54;;;;;;;;;;;;;;;;;;2100850;28;1586;-81
2021/08/06 00:06:56;;;;;;;;;;;;;;;;;;2100223;28;1627;-81
2021/08/06 00:07:58;;;;;;;;;;;;;;;;;;2099974;28;1911;-86
2021/08/06 00:08:59;;;;;;;;;;;;;;;;;;2108562;28;1546;-81
2021/08/06 00:10:01;;;;;;;;;;;;;;;;;;2108543;28;1253;-81
2021/08/06 00:11:02;;;;;;;;;;;;;;;;;;2108150;28;2005;-82
2021/08/06 00:12:04;;;;;;;;;;;;;;;;;;2108642;28;1538;-81
2021/08/06 00:13:05;;;;;;;;;;;;;;;;;;2107302;28;2095;-82
2021/08/06 00:14:07;;;;;;;;;;;;;;;;;;2108418;28;1788;-84
2021/08/06 00:15:09;;;;;;;;;;;;;;;;;;2108311;28;1984;-81
2021/08/06 00:16:11;;;;;;;;;;;;;;;;;;2105508;28;2006;-82
2021/08/06 00:17:12;;;;;;;;;;;;;;;;;;2116696;28;1268;-81
2021/08/06 00:18:13;;;;;;;;;;;;;;;;;;2107929;28;1719;-82
2021/08/06 00:19:14;;;;;;;;;;;;;;;;;;2116858;28;1644;-82
2021/08/06 00:20:16;;;;;;;;;;;;;;;;;;2108043;28;1381;-82
2021/08/06 00:21:17;;;;;;;;;;;;;;;;;;2110110;28;2060;-82
2021/08/06 00:22:20;;;;;;;;;;;;;;;;;;2099898;28;1675;-82
2021/08/06 00:23:21;;;;;;;;;;;;;;;;;;2099831;28;1787;-82
2021/08/06 00:24:23;;;;;;;;;;;;;;;;;;2099663;28;1364;-82
2021/08/06 00:25:24;;;;;;;;;;;;;;;;;;2108378;28;1672;-82
2021/08/06 00:26:25;;;;;;;;;;;;;;;;;;2100716;28;2092;-82
2021/08/06 00:27:27;;;;;;;;;;;;;;;;;;2108317;28;1850;-82
2021/08/06 00:28:28;;;;;;;;;;;;;;;;;;2108498;28;1395;-81
2021/08/06 00:29:30;;;;;;;;;;;;;;;;;;2099957;28;1693;-82
2021/08/06 00:30:30;;;;;;;;;;;;;;;;;;2100381;28;1947;-83
2021/08/06 00:31:32;;;;;;;;;;;;;;;;;;2107405;28;1336;-82
2021/08/06 00:32:33;;;;;;;;;;;;;;;;;;2108308;28;1769;-82
2021/08/06 00:33:39;;;;;;;;;;;;;;;;;;2108588;28;1675;-82
2021/08/06 00:34:42;;;;;;;;;;;;;;;;;;2100359;28;1985;-82
2021/08/06 00:35:44;;;;;;;;;;;;;;;;;;2101559;28;1883;-83
2021/08/06 00:36:46;;;;;;;;;;;;;;;;;;2108369;28;1272;-82
2021/08/06 00:37:51;;;;;;;;;;;;;;;;;;2109024;27;2190;-82
2021/08/06 00:38:52;;;;;;;;;;;;;;;;;;2107558;28;1197;-82
2021/08/06 00:39:55;;;;;;;;;;;;;;;;;;2108502;28;1820;-82
2021/08/06 00:40:56;;;;;;;;;;;;;;;;;;2111791;28;1874;-82
2021/08/06 00:41:58;;;;;;;;;;;;;;;;;;2108488;28;1880;-82
2021/08/06 00:42:59;;;;;;;;;;;;;;;;;;2108233;28;1262;-82
2021/08/06 00:44:08;;;;;;;;;;;;;;;;;;2109265;28;1772;-81
2021/08/06 00:45:09;;;;;;;;;;;;;;;;;;2108453;28;1504;-81
2021/08/06 00:46:13;;;;;;;;;;;;;;;;;;2107136;28;2014;-81
2021/08/06 00:47:15;;;;;;;;;;;;;;;;;;2108464;28;1569;-82
2021/08/06 00:48:17;;;;;;;;;;;;;;;;;;2108317;28;1289;-82
2021/08/06 00:49:18;;;;;;;;;;;;;;;;;;2108413;28;1400;-81
2021/08/06 00:50:25;;;;;;;;;;;;;;;;;;2100369;28;1638;-81
2021/08/06 00:51:25;;;;;;;;;;;;;;;;;;2108267;28;1929;-81
2021/08/06 00:52:31;;;;;;;;;;;;;;;;;;2100285;28;2119;-82
2021/08/06 00:53:33;;;;;;;;;;;;;;;;;;2099654;28;1703;-81
2021/08/06 00:54:39;;;;;;;;;;;;;;;;;;2108581;28;1274;-81
2021/08/06 00:55:46;;;;;;;;;;;;;;;;;;2110662;28;1850;-81
2021/08/06 00:56:56;;;;;;;;;;;;;;;;;;2109002;28;1316;-81
2021/08/06 00:57:57;;;;;;;;;;;;;;;;;;2107863;28;1943;-81
2021/08/06 00:59:00;;;;;;;;;;;;;;;;;;2108134;28;1262;-81
2021/08/06 01:00:01;;;;;;;;;;;;;;;;;;2107795;28;1385;-82
2021/08/06 01:01:03;;;;;;;;;;;;;;;;;;2100068;28;2017;-82
2021/08/06 01:02:17;;;;;;;;;;;;;;;;;;2100515;28;2106;-83
2021/08/06 01:03:23;;;;;;;;;;;;;;;;;;2109022;28;1258;-81
2021/08/06 01:04:27;;;;;;;;;;;;;;;;;;2107803;28;1317;-80
2021/08/06 01:05:29;;;;;;;;;;;;;;;;;;2099976;28;2001;-82
2021/08/06 01:06:37;;;;;;;;;;;;;;;;;;2108210;28;1246;-82
2021/08/06 01:07:43;;;;;;;;;;;;;;;;;;2115396;27;1998;-82
2021/08/06 01:08:50;;;;;;;;;;;;;;;;;;2115882;28;1626;-82
2021/08/06 01:09:55;;;;;;;;;;;;;;;;;;2115932;28;1165;-81
2021/08/06 01:11:10;;;;;;;;;;;;;;;;;;2106996;28;1978;-81
2021/08/06 01:12:19;;;;;;;;;;;;;;;;;;2108212;28;2034;-82
2021/08/06 01:13:26;;;;;;;;;;;;;;;;;;2100615;28;1408;-81
2021/08/06 01:14:28;;;;;;;;;;;;;;;;;;2099808;28;1697;-81
2021/08/06 01:15:32;;;;;;;;;;;;;;;;;;2099510;28;2073;-82
2021/08/06 01:16:37;;;;;;;;;;;;;;;;;;2100082;28;1425;-81
2021/08/06 01:17:57;;;;;;;;;;;;;;;;;;2105295;28;1959;-82
2021/08/06 01:19:04;;;;;;;;;;;;;;;;;;2100282;28;1258;-82
2021/08/06 01:20:07;;;;;;;;;;;;;;;;;;2100424;28;1329;-82
2021/08/06 01:21:12;;;;;;;;;;;;;;;;;;2105124;28;1892;-81
2021/08/06 01:22:16;;;;;;;;;;;;;;;;;;2115606;28;2043;-82
2021/08/06 01:23:22;;;;;;;;;;;;;;;;;;2107820;28;1577;-82
2021/08/06 01:24:27;;;;;;;;;;;;;;;;;;2100433;28;1800;-81
2021/08/06 01:25:35;;;;;;;;;;;;;;;;;;2099649;28;1858;-82
2021/08/06 01:26:39;;;;;;;;;;;;;;;;;;2100350;28;1377;-82
2021/08/06 01:27:47;;;;;;;;;;;;;;;;;;2112552;28;1990;-82
2021/08/06 01:28:50;;;;;;;;;;;;;;;;;;2108425;28;1347;-82
2021/08/06 01:29:51;;;;;;;;;;;;;;;;;;2107937;28;1396;-82
2021/08/06 01:30:55;;;;;;;;;;;;;;;;;;2099162;28;1966;-81
2021/08/06 01:31:56;;;;;;;;;;;;;;;;;;2099945;28;1347;-82
2021/08/06 01:32:59;;;;;;;;;;;;;;;;;;2107578;28;2125;-82
2021/08/06 01:34:01;;;;;;;;;;;;;;;;;;2108237;28;1532;-82
2021/08/06 01:35:05;;;;;;;;;;;;;;;;;;2107801;28;1914;-82
2021/08/06 01:36:07;;;;;;;;;;;;;;;;;;2107216;28;2028;-82
2021/08/06 01:37:09;;;;;;;;;;;;;;;;;;2107978;28;1446;-82
2021/08/06 01:38:19;;;;;;;;;;;;;;;;;;2100467;28;1610;-81
2021/08/06 01:39:21;;;;;;;;;;;;;;;;;;2099415;28;1727;-82
2021/08/06 01:40:26;;;;;;;;;;;;;;;;;;2099480;28;1688;-82
2021/08/06 01:41:36;;;;;;;;;;;;;;;;;;2108751;28;1238;-82
2021/08/06 01:42:41;;;;;;;;;;;;;;;;;;2111504;28;2101;-82
2021/08/06 01:43:51;;;;;;;;;;;;;;;;;;2108027;28;1430;-83
2021/08/06 01:44:53;;;;;;;;;;;;;;;;;;2107760;28;1230;-82
2021/08/06 01:46:10;;;;;;;;;;;;;;;;;;2107877;28;1435;-81
2021/08/06 01:47:15;;;;;;;;;;;;;;;;;;2101159;28;2057;-83
2021/08/06 01:48:26;;;;;;;;;;;;;;;;;;2100595;28;1339;-82
2021/08/06 01:49:30;;;;;;;;;;;;;;;;;;2100081;28;1533;-82
2021/08/06 01:50:34;;;;;;;;;;;;;;;;;;2107635;28;2017;-82
2021/08/06 01:51:43;;;;;;;;;;;;;;;;;;2100313;28;1037;-81
2021/08/06 01:52:48;;;;;;;;;;;;;;;;;;2103482;28;2023;-82
2021/08/06 01:53:51;;;;;;;;;;;;;;;;;;2107212;28;1462;-81
2021/08/06 01:54:54;;;;;;;;;;;;;;;;;;2099545;28;1439;-81
2021/08/06 01:55:58;;;;;;;;;;;;;;;;;;2107347;28;1909;-81
2021/08/06 01:57:10;;;;;;;;;;;;;;;;;;2100719;28;1614;-81
2021/08/06 01:58:12;;;;;;;;;;;;;;;;;;2100132;28;1418;-83
2021/08/06 01:59:18;;;;;;;;;;;;;;;;;;2099716;28;1246;-80
2021/08/06 02:00:24;;;;;;;;;;;;;;;;;;2099984;28;1570;-81
2021/08/06 02:01:34;;;;;;;;;;;;;;;;;;2100576;28;1377;-81
2021/08/06 02:02:43;;;;;;;;;;;;;;;;;;2104727;28;1886;-82
2021/08/06 02:03:46;;;;;;;;;;;;;;;;;;2107274;28;1705;-81
2021/08/06 02:05:02;;;;;;;;;;;;;;;;;;2101524;28;1797;-82
2021/08/06 02:06:04;;;;;;;;;;;;;;;;;;2104020;28;1967;-82
2021/08/06 02:07:08;;;;;;;;;;;;;;;;;;2107576;28;1467;-81
2021/08/06 02:08:09;;;;;;;;;;;;;;;;;;2107645;28;2193;-82
2021/08/06 02:09:15;;;;;;;;;;;;;;;;;;2099538;28;1867;-82
2021/08/06 02:10:16;;;;;;;;;;;;;;;;;;2099325;28;1080;-83
2021/08/06 02:11:18;;;;;;;;;;;;;;;;;;2099207;28;1150;-82
2021/08/06 02:12:21;;;;;;;;;;;;;;;;;;2109895;28;1801;-82
2021/08/06 02:13:37;;;;;;;;;;;;;;;;;;2109573;28;1457;-81
2021/08/06 02:14:38;;;;;;;;;;;;;;;;;;2107529;28;1518;-82
2021/08/06 02:15:42;;;;;;;;;;;;;;;;;;2107397;28;1985;-83
2021/08/06 02:16:44;;;;;;;;;;;;;;;;;;2099797;28;1731;-83
2021/08/06 02:17:47;;;;;;;;;;;;;;;;;;2107091;28;1735;-82
2021/08/06 02:19:13;;;;;;;;;;;;;;;;;;2107483;28;1546;-82
2021/08/06 02:20:15;;;;;;;;;;;;;;;;;;2100141;28;1237;-82
2021/08/06 02:21:26;;;;;;;;;;;;;;;;;;2107874;28;1867;-82
2021/08/06 02:22:27;;;;;;;;;;;;;;;;;;2099672;28;2028;-82
2021/08/06 02:23:32;;;;;;;;;;;;;;;;;;2091424;28;1223;-82
2021/08/06 02:24:33;;;;;;;;;;;;;;;;;;2098648;28;1240;-82
2021/08/06 02:25:36;;;;;;;;;;;;;;;;;;2102417;28;1686;-82
2021/08/06 02:26:39;;;;;;;;;;;;;;;;;;2099001;28;1680;-82
2021/08/06 02:27:43;;;;;;;;;;;;;;;;;;2091824;28;1977;-83
2021/08/06 02:28:49;;;;;;;;;;;;;;;;;;2092236;28;1253;-82
2021/08/06 02:29:54;;;;;;;;;;;;;;;;;;2099699;28;1592;-82
2021/08/06 02:31:00;;;;;;;;;;;;;;;;;;2109493;28;1942;-81
2021/08/06 02:32:01;;;;;;;;;;;;;;;;;;2115521;28;1349;-82
2021/08/06 02:33:03;;;;;;;;;;;;;;;;;;2115377;28;1296;-82
2021/08/06 02:34:04;;;;;;;;;;;;;;;;;;2107346;28;1359;-82
2021/08/06 02:35:06;;;;;;;;;;;;;;;;;;2107270;28;1622;-81
2021/08/06 02:36:07;;;;;;;;;;;;;;;;;;2101629;28;1979;-82
2021/08/06 02:37:09;;;;;;;;;;;;;;;;;;2098734;28;1352;-83
2021/08/06 02:38:10;;;;;;;;;;;;;;;;;;2106777;28;1811;-83
2021/08/06 02:39:16;;;;;;;;;;;;;;;;;;2107257;28;1741;-81
2021/08/06 02:40:17;;;;;;;;;;;;;;;;;;2099837;28;1354;-83
2021/08/06 02:41:20;;;;;;;;;;;;;;;;;;2114633;28;1371;-83
2021/08/06 02:42:21;;;;;;;;;;;;;;;;;;2115033;28;1784;-83
2021/08/06 02:43:25;;;;;;;;;;;;;;;;;;2107052;28;1429;-83
2021/08/06 02:44:26;;;;;;;;;;;;;;;;;;2107244;28;1306;-83
2021/08/06 02:45:28;;;;;;;;;;;;;;;;;;2106789;28;1442;-82
2021/08/06 02:46:29;;;;;;;;;;;;;;;;;;2107270;28;1239;-82
2021/08/06 02:47:31;;;;;;;;;;;;;;;;;;2107128;28;1435;-83
2021/08/06 02:48:32;;;;;;;;;;;;;;;;;;2099076;28;1246;-83
2021/08/06 02:49:35;;;;;;;;;;;;;;;;;;2107327;28;1431;-83
2021/08/06 02:50:36;;;;;;;;;;;;;;;;;;2106742;28;1950;-83
2021/08/06 02:51:38;;;;;;;;;;;;;;;;;;2107459;28;1516;-82
2021/08/06 02:52:39;;;;;;;;;;;;;;;;;;2102696;28;2093;-83
2021/08/06 02:53:41;;;;;;;;;;;;;;;;;;2107675;28;1197;-83
2021/08/06 02:54:41;;;;;;;;;;;;;;;;;;2107555;28;1504;-83
2021/08/06 02:55:43;;;;;;;;;;;;;;;;;;2108421;28;1975;-83
2021/08/06 02:56:44;;;;;;;;;;;;;;;;;;2108490;28;1370;-82
2021/08/06 02:57:46;;;;;;;;;;;;;;;;;;2104196;28;2017;-82
2021/08/06 02:58:48;;;;;;;;;;;;;;;;;;2108676;28;1477;-82
2021/08/06 02:59:52;;;;;;;;;;;;;;;;;;2109242;28;1545;-82
2021/08/06 03:00:53;;;;;;;;;;;;;;;;;;2108980;28;1417;-82
2021/08/06 03:01:55;;;;;;;;;;;;;;;;;;2109053;28;1885;-82
2021/08/06 03:02:57;;;;;;;;;;;;;;;;;;2104534;28;1770;-82
2021/08/06 03:03:58;;;;;;;;;;;;;;;;;;2108760;28;1524;-81
2021/08/06 03:05:01;;;;;;;;;;;;;;;;;;2107994;28;1496;-82
2021/08/06 03:06:01;;;;;;;;;;;;;;;;;;2117591;28;1439;-81
2021/08/06 03:07:04;;;;;;;;;;;;;;;;;;2104050;28;1678;-81
2021/08/06 03:08:04;;;;;;;;;;;;;;;;;;2107674;28;1941;-81
2021/08/06 03:09:06;;;;;;;;;;;;;;;;;;2108504;28;1744;-81
2021/08/06 03:10:07;;;;;;;;;;;;;;;;;;2108999;28;1557;-82
2021/08/06 03:11:09;;;;;;;;;;;;;;;;;;2108874;28;2041;-81
2021/08/06 03:12:11;;;;;;;;;;;;;;;;;;2108905;28;1895;-81
2021/08/06 03:13:13;;;;;;;;;;;;;;;;;;2108276;28;1370;-81
2021/08/06 03:14:15;;;;;;;;;;;;;;;;;;2112499;28;1694;-81
2021/08/06 03:15:19;;;;;;;;;;;;;;;;;;2117648;27;1337;-81
2021/08/06 03:16:21;;;;;;;;;;;;;;;;;;2105653;28;2249;-81
2021/08/06 03:17:25;;;;;;;;;;;;;;;;;;2100842;28;1719;-81
2021/08/06 03:18:27;;;;;;;;;;;;;;;;;;2108992;28;1324;-81
2021/08/06 03:19:29;;;;;;;;;;;;;;;;;;2109227;28;1622;-81
2021/08/06 03:20:31;;;;;;;;;;;;;;;;;;2108633;28;1206;-82
2021/08/06 03:21:38;;;;;;;;;;;;;;;;;;2101330;28;1850;-81
2021/08/06 03:22:39;;;;;;;;;;;;;;;;;;2109064;28;1439;-82
2021/08/06 03:23:41;;;;;;;;;;;;;;;;;;2114488;28;1323;-81
2021/08/06 03:24:45;;;;;;;;;;;;;;;;;;2105797;28;1327;-81
2021/08/06 03:25:47;;;;;;;;;;;;;;;;;;2105382;28;1789;-82
2021/08/06 03:26:48;;;;;;;;;;;;;;;;;;2108717;28;1486;-82
2021/08/06 03:27:50;;;;;;;;;;;;;;;;;;2116568;28;1999;-82
2021/08/06 03:28:50;;;;;;;;;;;;;;;;;;2108683;28;1630;-82
2021/08/06 03:29:54;;;;;;;;;;;;;;;;;;2108812;28;1329;-82
2021/08/06 03:30:55;;;;;;;;;;;;;;;;;;2108832;28;1479;-82
2021/08/06 03:31:57;;;;;;;;;;;;;;;;;;2108413;28;1408;-82
2021/08/06 03:32:58;;;;;;;;;;;;;;;;;;2108708;28;1371;-82
2021/08/06 03:34:01;;;;;;;;;;;;;;;;;;2100729;28;1496;-82
2021/08/06 03:35:03;;;;;;;;;;;;;;;;;;2100414;28;1502;-83
2021/08/06 03:36:05;;;;;;;;;;;;;;;;;;2108558;28;1984;-82
2021/08/06 03:37:06;;;;;;;;;;;;;;;;;;2108781;28;1111;-83
2021/08/06 03:38:16;;;;;;;;;;;;;;;;;;2100853;28;2431;-83
2021/08/06 03:39:18;;;;;;;;;;;;;;;;;;2100571;28;1321;-82
2021/08/06 03:40:22;;;;;;;;;;;;;;;;;;2100154;28;1217;-83
2021/08/06 03:41:22;;;;;;;;;;;;;;;;;;2115664;28;2005;-84
2021/08/06 03:42:25;;;;;;;;;;;;;;;;;;2108915;28;1302;-84
2021/08/06 03:43:27;;;;;;;;;;;;;;;;;;2100650;28;1349;-84
2021/08/06 03:44:28;;;;;;;;;;;;;;;;;;2100145;28;1455;-85
2021/08/06 03:45:31;;;;;;;;;;;;;;;;;;2107555;28;1974;-85
2021/08/06 03:46:32;;;;;;;;;;;;;;;;;;2108751;28;1242;-83
2021/08/06 03:47:35;;;;;;;;;;;;;;;;;;2108275;28;1896;-84
2021/08/06 03:48:35;;;;;;;;;;;;;;;;;;2108417;28;1348;-84
2021/08/06 03:49:38;;;;;;;;;;;;;;;;;;2108807;28;1375;-84
2021/08/06 03:50:39;;;;;;;;;;;;;;;;;;2116705;28;2072;-83
2021/08/06 03:51:41;;;;;;;;;;;;;;;;;;2108846;28;1238;-83
2021/08/06 03:52:42;;;;;;;;;;;;;;;;;;2108347;28;1254;-84
2021/08/06 03:53:44;;;;;;;;;;;;;;;;;;2108129;28;1547;-83
2021/08/06 03:54:45;;;;;;;;;;;;;;;;;;2107672;28;1441;-84
2021/08/06 03:55:47;;;;;;;;;;;;;;;;;;2105513;28;1974;-84
2021/08/06 03:56:49;;;;;;;;;;;;;;;;;;2107745;28;1348;-83
2021/08/06 03:57:51;;;;;;;;;;;;;;;;;;2112778;28;2037;-85
2021/08/06 03:58:54;;;;;;;;;;;;;;;;;;2107858;28;1309;-84
2021/08/06 03:59:54;;;;;;;;;;;;;;;;;;2099439;28;1249;-83
2021/08/06 04:00:58;;;;;;;;;;;;;;;;;;2091278;28;2071;-83
2021/08/06 04:01:59;;;;;;;;;;;;;;;;;;2091502;28;1861;-84
2021/08/06 04:03:01;;;;;;;;;;;;;;;;;;2105716;28;1930;-84
2021/08/06 04:04:02;;;;;;;;;;;;;;;;;;2107916;28;1187;-84
2021/08/06 04:05:04;;;;;;;;;;;;;;;;;;2099544;28;1281;-84
2021/08/06 04:06:06;;;;;;;;;;;;;;;;;;2104142;28;2046;-84
2021/08/06 04:07:08;;;;;;;;;;;;;;;;;;2099265;28;1717;-83
2021/08/06 04:08:09;;;;;;;;;;;;;;;;;;2099608;28;1359;-84
2021/08/06 04:09:15;;;;;;;;;;;;;;;;;;2100768;28;1252;-84
2021/08/06 04:10:16;;;;;;;;;;;;;;;;;;2099729;28;1337;-83
2021/08/06 04:11:20;;;;;;;;;;;;;;;;;;2107014;28;2070;-83
2021/08/06 04:12:20;;;;;;;;;;;;;;;;;;2108452;28;1241;-84
2021/08/06 04:13:22;;;;;;;;;;;;;;;;;;2100030;28;1504;-84
2021/08/06 04:14:23;;;;;;;;;;;;;;;;;;2108465;28;1147;-84
2021/08/06 04:15:25;;;;;;;;;;;;;;;;;;2108667;28;1272;-83
2021/08/06 04:16:28;;;;;;;;;;;;;;;;;;2100302;28;1910;-85
2021/08/06 04:17:29;;;;;;;;;;;;;;;;;;2100557;28;1325;-82
2021/08/06 04:18:30;;;;;;;;;;;;;;;;;;2100072;28;1688;-83
2021/08/06 04:19:31;;;;;;;;;;;;;;;;;;2100483;28;1377;-83
2021/08/06 04:20:33;;;;;;;;;;;;;;;;;;2100289;28;1999;-84
2021/08/06 04:21:34;;;;;;;;;;;;;;;;;;2100120;28;1328;-83
2021/08/06 04:22:36;;;;;;;;;;;;;;;;;;2100153;28;1435;-83
2021/08/06 04:23:36;;;;;;;;;;;;;;;;;;2100070;28;1308;-84
2021/08/06 04:24:38;;;;;;;;;;;;;;;;;;2099743;28;1353;-83
2021/08/06 04:25:39;;;;;;;;;;;;;;;;;;2108491;28;2021;-83
2021/08/06 04:26:41;;;;;;;;;;;;;;;;;;2108308;28;1304;-84
2021/08/06 04:27:42;;;;;;;;;;;;;;;;;;2099842;28;1198;-84
2021/08/06 04:28:44;;;;;;;;;;;;;;;;;;2099965;28;1239;-83
2021/08/06 04:29:44;;;;;;;;;;;;;;;;;;2108546;28;1330;-83
2021/08/06 04:30:46;;;;;;;;;;;;;;;;;;2107538;28;2005;-83
2021/08/06 04:31:48;;;;;;;;;;;;;;;;;;2108584;28;1311;-83
2021/08/06 04:32:50;;;;;;;;;;;;;;;;;;2100032;28;1476;-83
2021/08/06 04:33:51;;;;;;;;;;;;;;;;;;2100104;28;1822;-83
2021/08/06 04:34:52;;;;;;;;;;;;;;;;;;2108186;28;1785;-83
2021/08/06 04:35:54;;;;;;;;;;;;;;;;;;2103173;28;1983;-83
2021/08/06 04:36:55;;;;;;;;;;;;;;;;;;2116552;28;1901;-83
2021/08/06 04:37:58;;;;;;;;;;;;;;;;;;2107613;28;2027;-83
2021/08/06 04:39:02;;;;;;;;;;;;;;;;;;2109198;28;1701;-84
2021/08/06 04:40:04;;;;;;;;;;;;;;;;;;2108051;28;1547;-84
2021/08/06 04:41:05;;;;;;;;;;;;;;;;;;2107773;28;1884;-83
2021/08/06 04:42:08;;;;;;;;;;;;;;;;;;2100137;28;1376;-83
2021/08/06 04:43:10;;;;;;;;;;;;;;;;;;2108415;28;1345;-83
2021/08/06 04:44:11;;;;;;;;;;;;;;;;;;2116577;28;1205;-84
2021/08/06 04:45:13;;;;;;;;;;;;;;;;;;2107904;28;1612;-83
2021/08/06 04:46:14;;;;;;;;;;;;;;;;;;2100247;28;2135;-83
2021/08/06 04:47:18;;;;;;;;;;;;;;;;;;2100450;28;2063;-83
2021/08/06 04:48:21;;;;;;;;;;;;;;;;;;2099846;28;1565;-86
2021/08/06 04:49:23;;;;;;;;;;;;;;;;;;2108589;28;1521;-83
2021/08/06 04:50:25;;;;;;;;;;;;;;;;;;2108028;28;1365;-83
2021/08/06 04:51:32;;;;;;;;;;;;;;;;;;2108916;28;1384;-83
2021/08/06 04:52:33;;;;;;;;;;;;;;;;;;2104708;28;2012;-83
2021/08/06 04:53:35;;;;;;;;;;;;;;;;;;2100129;28;1683;-83
2021/08/06 04:54:36;;;;;;;;;;;;;;;;;;2099580;28;1288;-83
2021/08/06 04:55:39;;;;;;;;;;;;;;;;;;2099692;28;1209;-83
2021/08/06 04:56:41;;;;;;;;;;;;;;;;;;2099882;28;1977;-81
2021/08/06 04:57:46;;;;;;;;;;;;;;;;;;2100630;28;2019;-84
2021/08/06 04:58:49;;;;;;;;;;;;;;;;;;2107996;28;1309;-83
2021/08/06 04:59:51;;;;;;;;;;;;;;;;;;2108270;28;1290;-83
2021/08/06 05:00:53;;;;;;;;;;;;;;;;;;2102803;28;1999;-82
2021/08/06 05:01:58;;;;;;;;;;;;;;;;;;2108351;28;1309;-83
2021/08/06 05:03:00;;;;;;;;;;;;;;;;;;2105997;28;2061;-83
2021/08/06 05:04:07;;;;;;;;;;;;;;;;;;2108964;28;1309;-83
2021/08/06 05:05:08;;;;;;;;;;;;;;;;;;2108183;28;1552;-82
2021/08/06 05:06:13;;;;;;;;;;;;;;;;;;2107874;28;1397;-82
2021/08/06 05:07:17;;;;;;;;;;;;;;;;;;2107803;28;1921;-83
2021/08/06 05:08:19;;;;;;;;;;;;;;;;;;2108407;28;1233;-83
2021/08/06 05:09:20;;;;;;;;;;;;;;;;;;2108372;28;1820;-83
2021/08/06 05:10:23;;;;;;;;;;;;;;;;;;2099177;28;1322;-83
2021/08/06 05:11:24;;;;;;;;;;;;;;;;;;2115385;28;1907;-82
2021/08/06 05:12:25;;;;;;;;;;;;;;;;;;2108557;28;2123;-82
2021/08/06 05:13:26;;;;;;;;;;;;;;;;;;2107732;28;1473;-82
2021/08/06 05:14:28;;;;;;;;;;;;;;;;;;2099761;28;1291;-82
2021/08/06 05:15:28;;;;;;;;;;;;;;;;;;2107608;28;1852;-83
2021/08/06 05:16:34;;;;;;;;;;;;;;;;;;2108084;28;1913;-83
2021/08/06 05:17:36;;;;;;;;;;;;;;;;;;2107895;28;2122;-82
2021/08/06 05:18:40;;;;;;;;;;;;;;;;;;2108207;28;1769;-82
2021/08/06 05:19:42;;;;;;;;;;;;;;;;;;2108290;28;1366;-82
2021/08/06 05:20:45;;;;;;;;;;;;;;;;;;2107818;28;1425;-84
2021/08/06 05:21:48;;;;;;;;;;;;;;;;;;2107741;28;1576;-84
2021/08/06 05:22:49;;;;;;;;;;;;;;;;;;2107636;28;1984;-83
2021/08/06 05:23:53;;;;;;;;;;;;;;;;;;2107994;28;1393;-83
2021/08/06 05:24:55;;;;;;;;;;;;;;;;;;2107780;28;1796;-84
2021/08/06 05:25:57;;;;;;;;;;;;;;;;;;2102669;28;1959;-83
2021/08/06 05:26:59;;;;;;;;;;;;;;;;;;2099107;28;1278;-83
2021/08/06 05:28:00;;;;;;;;;;;;;;;;;;2106363;28;2011;-83
2021/08/06 05:29:02;;;;;;;;;;;;;;;;;;2099598;28;1332;-84
2021/08/06 05:30:03;;;;;;;;;;;;;;;;;;2108100;28;1262;-84
2021/08/06 05:31:05;;;;;;;;;;;;;;;;;;2099569;28;1605;-84
2021/08/06 05:32:07;;;;;;;;;;;;;;;;;;2099602;28;1463;-84
2021/08/06 05:33:10;;;;;;;;;;;;;;;;;;2107641;28;2007;-83
2021/08/06 05:34:12;;;;;;;;;;;;;;;;;;2107618;28;1332;-84
2021/08/06 05:35:14;;;;;;;;;;;;;;;;;;2108217;28;1352;-83
2021/08/06 05:36:17;;;;;;;;;;;;;;;;;;2115527;28;1890;-85
2021/08/06 05:37:17;;;;;;;;;;;;;;;;;;2107994;28;2070;-84
2021/08/06 05:38:19;;;;;;;;;;;;;;;;;;2099149;28;1513;-85
2021/08/06 05:39:20;;;;;;;;;;;;;;;;;;2099730;28;1261;-84
2021/08/06 05:40:22;;;;;;;;;;;;;;;;;;2107532;28;1681;-84
2021/08/06 05:41:23;;;;;;;;;;;;;;;;;;2107632;28;1312;-84
2021/08/06 05:42:25;;;;;;;;;;;;;;;;;;2100081;28;2114;-82
2021/08/06 05:43:27;;;;;;;;;;;;;;;;;;2099278;28;1626;-84
2021/08/06 05:44:28;;;;;;;;;;;;;;;;;;2099166;28;1366;-87
2021/08/06 05:45:29;;;;;;;;;;;;;;;;;;2099689;28;2070;-85
2021/08/06 05:46:31;;;;;;;;;;;;;;;;;;2107825;28;1424;-84
2021/08/06 05:47:41;;;;;;;;;;;;;;;;;;2099612;28;2020;-84
2021/08/06 05:48:43;;;;;;;;;;;;;;;;;;2100377;28;1233;-84
2021/08/06 05:49:46;;;;;;;;;;;;;;;;;;2099698;28;1226;-85
2021/08/06 05:50:47;;;;;;;;;;;;;;;;;;2099780;28;1903;-84
2021/08/06 05:51:53;;;;;;;;;;;;;;;;;;2108421;28;1474;-84
2021/08/06 05:52:54;;;;;;;;;;;;;;;;;;2113381;28;2070;-84
2021/08/06 05:53:55;;;;;;;;;;;;;;;;;;2107972;28;1278;-82
2021/08/06 05:54:56;;;;;;;;;;;;;;;;;;2107018;28;1297;-85
2021/08/06 05:55:59;;;;;;;;;;;;;;;;;;2108108;28;1414;-84
2021/08/06 05:57:01;;;;;;;;;;;;;;;;;;2107887;28;1921;-84
2021/08/06 05:58:03;;;;;;;;;;;;;;;;;;2107383;28;2082;-83
2021/08/06 05:59:05;;;;;;;;;;;;;;;;;;2107390;28;1766;-83
2021/08/06 06:00:07;;;;;;;;;;;;;;;;;;2100165;28;1309;-83
2021/08/06 06:01:17;;;;;;;;;;;;;;;;;;2109342;28;2124;-84
2021/08/06 06:02:45;;;;;;;;;;;;;;;;;;2099317;28;2036;-83
2021/08/06 06:04:07;;;;;;;;;;;;;;;;;;2108511;28;1373;-84
2021/08/06 06:05:36;;;;;;;;;;;;;;;;;;2107455;28;1194;-84
2021/08/06 06:06:38;;;;;;;;;;;;;;;;;;2099334;28;1256;-85
2021/08/06 06:07:42;;;;;;;;;;;;;;;;;;2103267;28;2011;-84
2021/08/06 06:08:44;;;;;;;;;;;;;;;;;;2107498;28;1533;-84
2021/08/06 06:09:45;;;;;;;;;;;;;;;;;;2107238;28;1258;-84
2021/08/06 06:10:46;;;;;;;;;;;;;;;;;;2108889;28;2022;-84
2021/08/06 06:11:48;;;;;;;;;;;;;;;;;;2107765;28;1516;-84
2021/08/06 06:12:50;;;;;;;;;;;;;;;;;;2098750;28;2039;-84
2021/08/06 06:13:51;;;;;;;;;;;;;;;;;;2099530;28;1313;-84
2021/08/06 06:14:53;;;;;;;;;;;;;;;;;;2099185;28;1305;-84
2021/08/06 06:15:55;;;;;;;;;;;;;;;;;;2102241;28;2034;-84
2021/08/06 06:16:57;;;;;;;;;;;;;;;;;;2107289;28;1974;-84
2021/08/06 06:17:58;;;;;;;;;;;;;;;;;;2099189;28;1394;-84
2021/08/06 06:19:01;;;;;;;;;;;;;;;;;;2099523;28;1814;-85
2021/08/06 06:20:02;;;;;;;;;;;;;;;;;;2099229;28;1310;-84
2021/08/06 06:21:10;;;;;;;;;;;;;;;;;;2099757;28;2050;-84
2021/08/06 06:22:10;;;;;;;;;;;;;;;;;;2091990;28;1981;-86
2021/08/06 06:23:13;;;;;;;;;;;;;;;;;;2099111;28;1284;-84
2021/08/06 06:24:14;;;;;;;;;;;;;;;;;;2099112;28;1436;-84
2021/08/06 06:25:16;;;;;;;;;;;;;;;;;;2099333;28;1475;-84
2021/08/06 06:26:19;;;;;;;;;;;;;;;;;;2091008;28;1306;-84
2021/08/06 06:27:19;;;;;;;;;;;;;;;;;;2091692;28;1994;-85
2021/08/06 06:28:22;;;;;;;;;;;;;;;;;;2099216;28;1577;-84
2021/08/06 06:29:28;;;;;;;;;;;;;;;;;;2099789;28;1147;-84
2021/08/06 06:30:29;;;;;;;;;;;;;;;;;;2098588;28;2075;-84
2021/08/06 06:31:33;;;;;;;;;;;;;;;;;;2099173;28;1315;-84
2021/08/06 06:32:34;;;;;;;;;;;;;;;;;;2098973;28;1989;-84
2021/08/06 06:33:36;;;;;;;;;;;;;;;;;;2099245;28;1770;-85
2021/08/06 06:34:37;;;;;;;;;;;;;;;;;;2090764;28;1295;-84
2021/08/06 06:35:39;;;;;;;;;;;;;;;;;;2091593;28;2052;-84
2021/08/06 06:36:43;;;;;;;;;;;;;;;;;;2099280;28;1326;-84
2021/08/06 06:37:43;;;;;;;;;;;;;;;;;;2102751;28;2067;-83
2021/08/06 06:38:46;;;;;;;;;;;;;;;;;;2099032;28;1312;-82
2021/08/06 06:39:46;;;;;;;;;;;;;;;;;;2091154;28;1513;-84
2021/08/06 06:40:48;;;;;;;;;;;;;;;;;;2091928;28;2024;-84
2021/08/06 06:41:58;;;;;;;;;;;;;;;;;;2099430;28;1317;-84
2021/08/06 06:43:04;;;;;;;;;;;;;;;;;;2106771;28;2096;-84
2021/08/06 06:44:07;;;;;;;;;;;;;;;;;;2107869;28;1258;-84
2021/08/06 06:45:08;;;;;;;;;;;;;;;;;;2099174;28;1634;-84
2021/08/06 06:46:10;;;;;;;;;;;;;;;;;;2099259;28;1552;-82
2021/08/06 06:47:11;;;;;;;;;;;;;;;;;;2099015;28;2152;-85
2021/08/06 06:48:13;;;;;;;;;;;;;;;;;;2099525;28;1357;-85
2021/08/06 06:49:14;;;;;;;;;;;;;;;;;;2099038;28;1324;-83
2021/08/06 06:50:17;;;;;;;;;;;;;;;;;;2090844;28;1281;-82
2021/08/06 06:51:19;;;;;;;;;;;;;;;;;;2090726;28;1382;-84
2021/08/06 06:52:21;;;;;;;;;;;;;;;;;;2091738;28;2084;-84
2021/08/06 06:53:23;;;;;;;;;;;;;;;;;;2107465;28;862;-81
2021/08/06 06:54:25;;;;;;;;;;;;;;;;;;2099089;28;1413;-84
2021/08/06 06:55:28;;;;;;;;;;;;;;;;;;2090447;28;1629;-87
2021/08/06 06:56:31;;;;;;;;;;;;;;;;;;2091215;28;1705;-84
2021/08/06 06:57:39;;;;;;;;;;;;;;;;;;2093476;28;1985;-85
2021/08/06 06:58:41;;;;;;;;;;;;;;;;;;2099876;28;1377;-84
2021/08/06 06:59:43;;;;;;;;;;;;;;;;;;2098073;28;1541;-84
2021/08/06 07:00:45;;;;;;;;;;;;;;;;;;2100658;28;2014;-83
2021/08/06 07:01:46;;;;;;;;;;;;;;;;;;2107463;28;1282;-80
2021/08/06 07:02:47;;;;;;;;;;;;;;;;;;2106513;28;1894;-79
2021/08/06 07:03:49;;;;;;;;;;;;;;;;;;2107471;28;1475;-82
2021/08/06 07:04:51;;;;;;;;;;;;;;;;;;2107265;28;1286;-80
2021/08/06 07:05:53;;;;;;;;;;;;;;;;;;2097712;28;2016;-81
2021/08/06 07:06:56;;;;;;;;;;;;;;;;;;2091035;28;1994;-81
2021/08/06 07:08:02;;;;;;;;;;;;;;;;;;2093821;28;1705;-81
2021/08/06 07:09:06;;;;;;;;;;;;;;;;;;2095429;28;1446;-81
2021/08/06 07:10:09;;;;;;;;;;;;;;;;;;2096151;28;1570;-80
2021/08/06 07:11:11;;;;;;;;;;;;;;;;;;2094578;28;1671;-79
2021/08/06 07:12:12;;;;;;;;;;;;;;;;;;2092633;28;1710;-78
2021/08/06 07:13:13;;;;;;;;;;;;;;;;;;2092560;28;1240;-79
2021/08/06 07:14:15;;;;;;;;;;;;;;;;;;2091725;28;1358;-79
2021/08/06 07:15:18;;;;;;;;;;;;;;;;;;2094681;28;1343;-79
2021/08/06 07:16:21;;;;;;;;;;;;;;;;;;2101137;28;1800;-77
2021/08/06 07:17:24;;;;;;;;;;;;;;;;;;2103637;28;2018;-75
2021/08/06 07:18:26;;;;;;;;;;;;;;;;;;2092230;28;1365;-79